sensor_id;sensor_type;location;lat;lon;timestamp;pressure;altitude;pressure_sealevel;temperature;humidity
61474;BME280;53694;49.784;30.150;2023-05-07T00:00:07;100419.84;;;8.32;44.41
61474;BME280;53694;49.784;30.150;2023-05-07T00:01:08;100413.27;;;8.33;44.59
61474;BME280;53694;49.784;30.150;2023-05-07T00:02:10;100417.10;;;8.32;44.69
61474;BME280;53694;49.784;30.150;2023-05-07T00:03:11;100411.33;;;8.34;44.51
61474;BME280;53694;49.784;30.150;2023-05-07T00:04:13;100408.59;;;8.34;44.69
61474;BME280;53694;49.784;30.150;2023-05-07T00:05:15;100411.63;;;8.32;44.29
61474;BME280;53694;49.784;30.150;2023-05-07T00:06:17;100406.50;;;8.31;44.53
61474;BME280;53694;49.784;30.150;2023-05-07T00:07:18;100405.36;;;8.32;44.19
61474;BME280;53694;49.784;30.150;2023-05-07T00:08:20;100414.70;;;8.31;44.28
61474;BME280;53694;49.784;30.150;2023-05-07T00:09:22;100413.91;;;8.30;44.30
61474;BME280;53694;49.784;30.150;2023-05-07T00:10:24;100406.84;;;8.29;44.28
61474;BME280;53694;49.784;30.150;2023-05-07T00:11:25;100413.11;;;8.30;44.39
61474;BME280;53694;49.784;30.150;2023-05-07T00:12:27;100413.91;;;8.30;44.15
61474;BME280;53694;49.784;30.150;2023-05-07T00:13:28;100414.55;;;8.27;44.16
61474;BME280;53694;49.784;30.150;2023-05-07T00:14:30;100414.09;;;8.25;44.20
61474;BME280;53694;49.784;30.150;2023-05-07T00:15:32;100408.92;;;8.23;44.21
61474;BME280;53694;49.784;30.150;2023-05-07T00:16:34;100406.52;;;8.22;44.52
61474;BME280;53694;49.784;30.150;2023-05-07T00:17:35;100407.97;;;8.19;44.21
61474;BME280;53694;49.784;30.150;2023-05-07T00:18:37;100412.64;;;8.19;44.28
61474;BME280;53694;49.784;30.150;2023-05-07T00:19:39;100407.16;;;8.19;44.24
61474;BME280;53694;49.784;30.150;2023-05-07T00:20:40;100411.04;;;8.18;44.45
61474;BME280;53694;49.784;30.150;2023-05-07T00:21:41;100414.11;;;8.16;44.30
61474;BME280;53694;49.784;30.150;2023-05-07T00:22:43;100404.77;;;8.17;44.63
61474;BME280;53694;49.784;30.150;2023-05-07T00:23:45;100404.77;;;8.17;44.63
61474;BME280;53694;49.784;30.150;2023-05-07T00:24:46;100412.17;;;8.17;44.55
61474;BME280;53694;49.784;30.150;2023-05-07T00:25:48;100414.11;;;8.16;44.48
61474;BME280;53694;49.784;30.150;2023-05-07T00:26:50;100407.02;;;8.15;44.51
61474;BME280;53694;49.784;30.150;2023-05-07T00:27:51;100402.67;;;8.14;44.82
61474;BME280;53694;49.784;30.150;2023-05-07T00:28:53;100402.22;;;8.12;44.78
61474;BME280;53694;49.784;30.150;2023-05-07T00:29:55;100399.78;;;8.11;44.36
61474;BME280;53694;49.784;30.150;2023-05-07T00:30:56;100403.99;;;8.08;44.31
61474;BME280;53694;49.784;30.150;2023-05-07T00:31:58;100407.03;;;8.07;44.30
61474;BME280;53694;49.784;30.150;2023-05-07T00:33:00;100404.97;;;8.04;44.39
61474;BME280;53694;49.784;30.150;2023-05-07T00:34:01;100401.73;;;8.01;44.53
61474;BME280;53694;49.784;30.150;2023-05-07T00:35:04;100404.02;;;7.99;44.58
61474;BME280;53694;49.784;30.150;2023-05-07T00:36:06;100407.85;;;7.98;44.71
61474;BME280;53694;49.784;30.150;2023-05-07T00:37:08;100400.78;;;7.97;44.90
61474;BME280;53694;49.784;30.150;2023-05-07T00:38:10;100400.78;;;7.97;44.94
61474;BME280;53694;49.784;30.150;2023-05-07T00:39:11;100400.78;;;7.97;44.93
61474;BME280;53694;49.784;30.150;2023-05-07T00:40:13;100400.78;;;7.97;44.76
61474;BME280;53694;49.784;30.150;2023-05-07T00:41:15;100401.92;;;7.96;44.83
61474;BME280;53694;49.784;30.150;2023-05-07T00:42:17;100403.05;;;7.95;44.81
61474;BME280;53694;49.784;30.150;2023-05-07T00:43:18;100406.92;;;7.94;45.16
61474;BME280;53694;49.784;30.150;2023-05-07T00:44:20;100402.25;;;7.95;44.99
61474;BME280;53694;49.784;30.150;2023-05-07T00:45:25;100407.23;;;7.93;44.83
61474;BME280;53694;49.784;30.150;2023-05-07T00:46:26;100406.42;;;7.92;44.99
61474;BME280;53694;49.784;30.150;2023-05-07T00:47:28;100402.40;;;7.90;44.99
61474;BME280;53694;49.784;30.150;2023-05-07T00:48:30;100404.34;;;7.89;44.89
61474;BME280;53694;49.784;30.150;2023-05-07T00:49:43;100404.34;;;7.89;44.99
61474;BME280;53694;49.784;30.150;2023-05-07T00:50:37;100404.34;;;7.89;44.86
61474;BME280;53694;49.784;30.150;2023-05-07T00:51:39;100408.20;;;7.88;44.98
61474;BME280;53694;49.784;30.150;2023-05-07T00:52:40;100405.80;;;7.87;45.09
61474;BME280;53694;49.784;30.150;2023-05-07T00:53:42;100405.00;;;7.86;45.60
61474;BME280;53694;49.784;30.150;2023-05-07T00:54:44;100405.47;;;7.88;45.65
61474;BME280;53694;49.784;30.150;2023-05-07T00:55:46;100402.73;;;7.88;45.79
61474;BME280;53694;49.784;30.150;2023-05-07T00:56:48;100405.47;;;7.88;45.44
61474;BME280;53694;49.784;30.150;2023-05-07T00:57:50;100403.87;;;7.87;45.22
61474;BME280;53694;49.784;30.150;2023-05-07T00:58:52;100403.37;;;7.87;45.02
61474;BME280;53694;49.784;30.150;2023-05-07T00:59:54;100403.37;;;7.85;45.26
61474;BME280;53694;49.784;30.150;2023-05-07T01:00:55;100407.73;;;7.86;45.33
61474;BME280;53694;49.784;30.150;2023-05-07T01:01:57;100405.00;;;7.86;45.29
61474;BME280;53694;49.784;30.150;2023-05-07T01:02:59;100410.48;;;7.86;45.28
61474;BME280;53694;49.784;30.150;2023-05-07T01:04:00;100403.37;;;7.85;45.26
61474;BME280;53694;49.784;30.150;2023-05-07T01:05:04;100407.73;;;7.86;45.66
61474;BME280;53694;49.784;30.150;2023-05-07T01:06:07;100405.00;;;7.86;45.29
61474;BME280;53694;49.784;30.150;2023-05-07T01:07:09;100397.11;;;7.85;45.43
61474;BME280;53694;49.784;30.150;2023-05-07T01:08:12;100408.05;;;7.85;45.54
61474;BME280;53694;49.784;30.150;2023-05-07T01:09:15;100403.71;;;7.84;45.33
61474;BME280;53694;49.784;30.150;2023-05-07T01:10:18;100407.88;;;7.81;45.44
61474;BME280;53694;49.784;30.150;2023-05-07T01:11:20;100410.16;;;7.79;45.64
61474;BME280;53694;49.784;30.150;2023-05-07T01:12:22;100398.41;;;7.79;46.01
61474;BME280;53694;49.784;30.150;2023-05-07T01:13:24;100395.98;;;7.77;45.77
61474;BME280;53694;49.784;30.150;2023-05-07T01:14:26;100406.92;;;7.77;45.63
61474;BME280;53694;49.784;30.150;2023-05-07T01:15:28;100401.45;;;7.77;45.96
61474;BME280;53694;49.784;30.150;2023-05-07T01:16:30;100401.78;;;7.75;45.92
61474;BME280;53694;49.784;30.150;2023-05-07T01:17:37;100400.98;;;7.75;46.00
61474;BME280;53694;49.784;30.150;2023-05-07T01:18:39;100400.48;;;7.73;45.80
61474;BME280;53694;49.784;30.150;2023-05-07T01:19:41;100405.16;;;7.72;45.76
61474;BME280;53694;49.784;30.150;2023-05-07T01:20:43;100401.16;;;7.70;45.82
61474;BME280;53694;49.784;30.150;2023-05-07T01:21:48;100400.36;;;7.69;45.85
61474;BME280;53694;49.784;30.150;2023-05-07T01:22:50;100399.56;;;7.69;45.88
61474;BME280;53694;49.784;30.150;2023-05-07T01:23:53;100400.66;;;7.68;45.81
61474;BME280;53694;49.784;30.150;2023-05-07T01:24:56;100403.39;;;7.68;45.97
61474;BME280;53694;49.784;30.150;2023-05-07T01:25:57;100399.06;;;7.67;46.23
61474;BME280;53694;49.784;30.150;2023-05-07T01:26:59;100401.00;;;7.66;46.21
61474;BME280;53694;49.784;30.150;2023-05-07T01:28:00;100398.59;;;7.65;46.28
61474;BME280;53694;49.784;30.150;2023-05-07T01:29:02;100404.06;;;7.65;46.03
61474;BME280;53694;49.784;30.150;2023-05-07T01:30:04;100404.06;;;7.65;46.30
61474;BME280;53694;49.784;30.150;2023-05-07T01:31:06;100407.10;;;7.63;46.04
61474;BME280;53694;49.784;30.150;2023-05-07T01:32:10;100404.70;;;7.62;46.02
61474;BME280;53694;49.784;30.150;2023-05-07T01:33:14;100411.77;;;7.63;46.19
61474;BME280;53694;49.784;30.150;2023-05-07T01:34:17;100410.17;;;7.62;46.27
61474;BME280;53694;49.784;30.150;2023-05-07T01:35:21;100403.09;;;7.61;46.10
61474;BME280;53694;49.784;30.150;2023-05-07T01:36:24;100402.27;;;7.60;46.09
61474;BME280;53694;49.784;30.150;2023-05-07T01:37:27;100409.67;;;7.60;46.13
61474;BME280;53694;49.784;30.150;2023-05-07T01:38:29;100408.06;;;7.59;46.25
61474;BME280;53694;49.784;30.150;2023-05-07T01:39:32;100408.88;;;7.59;46.35
61474;BME280;53694;49.784;30.150;2023-05-07T01:40:34;100404.53;;;7.58;46.14
61474;BME280;53694;49.784;30.150;2023-05-07T01:41:37;100409.20;;;7.58;46.25
61474;BME280;53694;49.784;30.150;2023-05-07T01:42:38;100410.80;;;7.59;46.28
61474;BME280;53694;49.784;30.150;2023-05-07T01:43:41;100406.47;;;7.58;46.30
61474;BME280;53694;49.784;30.150;2023-05-07T01:44:43;100415.47;;;7.58;46.40
61474;BME280;53694;49.784;30.150;2023-05-07T01:45:45;100415.47;;;7.58;46.45
61474;BME280;53694;49.784;30.150;2023-05-07T01:46:47;100416.27;;;7.59;46.69
61474;BME280;53694;49.784;30.150;2023-05-07T01:47:49;100415.14;;;7.60;46.46
61474;BME280;53694;49.784;30.150;2023-05-07T01:48:51;100416.77;;;7.61;46.27
61474;BME280;53694;49.784;30.150;2023-05-07T01:49:53;100417.87;;;7.60;46.47
61474;BME280;53694;49.784;30.150;2023-05-07T01:50:55;100424.97;;;7.61;46.23
61474;BME280;53694;49.784;30.150;2023-05-07T01:51:57;100422.23;;;7.61;46.36
61474;BME280;53694;49.784;30.150;2023-05-07T01:52:59;100426.57;;;7.62;46.91
61474;BME280;53694;49.784;30.150;2023-05-07T01:54:02;100428.17;;;7.63;46.59
61474;BME280;53694;49.784;30.150;2023-05-07T01:55:05;100432.34;;;7.60;46.29
61474;BME280;53694;49.784;30.150;2023-05-07T01:56:07;100432.03;;;7.62;46.36
61474;BME280;53694;49.784;30.150;2023-05-07T01:57:09;100436.70;;;7.61;46.55
61474;BME280;53694;49.784;30.150;2023-05-07T01:58:10;100433.47;;;7.59;47.20
61474;BME280;53694;49.784;30.150;2023-05-07T01:59:12;100433.47;;;7.59;47.20
61474;BME280;53694;49.784;30.150;2023-05-07T02:00:14;100434.27;;;7.60;46.67
61474;BME280;53694;49.784;30.150;2023-05-07T02:01:16;100431.53;;;7.60;46.34
61474;BME280;53694;49.784;30.150;2023-05-07T02:02:17;100434.27;;;7.60;46.25
61474;BME280;53694;49.784;30.150;2023-05-07T02:03:19;100435.91;;;7.61;46.28
61474;BME280;53694;49.784;30.150;2023-05-07T02:04:21;100435.91;;;7.61;46.28
61474;BME280;53694;49.784;30.150;2023-05-07T02:05:22;100436.38;;;7.63;46.35
61474;BME280;53694;49.784;30.150;2023-05-07T02:06:24;100430.91;;;7.63;46.56
61474;BME280;53694;49.784;30.150;2023-05-07T02:07:26;100430.91;;;7.63;46.40
61474;BME280;53694;49.784;30.150;2023-05-07T02:08:27;100431.23;;;7.61;45.87
61474;BME280;53694;49.784;30.150;2023-05-07T02:09:29;100428.80;;;7.60;45.95
61474;BME280;53694;49.784;30.150;2023-05-07T02:10:31;100435.41;;;7.59;46.22
61474;BME280;53694;49.784;30.150;2023-05-07T02:11:33;100435.41;;;7.59;45.92
61474;BME280;53694;49.784;30.150;2023-05-07T02:12:34;100433.30;;;7.56;45.97
61474;BME280;53694;49.784;30.150;2023-05-07T02:13:36;100431.07;;;7.58;46.08
61474;BME280;53694;49.784;30.150;2023-05-07T02:14:38;100441.20;;;7.57;46.40
61474;BME280;53694;49.784;30.150;2023-05-07T02:15:39;100447.30;;;7.54;45.97
61474;BME280;53694;49.784;30.150;2023-05-07T02:16:41;100445.38;;;7.55;46.16
61474;BME280;53694;49.784;30.150;2023-05-07T02:18:00;100447.30;;;7.54;46.66
61474;BME280;53694;49.784;30.150;2023-05-07T02:19:01;100447.30;;;7.54;46.36
61474;BME280;53694;49.784;30.150;2023-05-07T02:20:03;100450.03;;;7.54;46.53
61474;BME280;53694;49.784;30.150;2023-05-07T02:21:05;100444.23;;;7.56;46.89
61474;BME280;53694;49.784;30.150;2023-05-07T02:22:07;100449.41;;;7.57;47.07
61474;BME280;53694;49.784;30.150;2023-05-07T02:23:09;100445.20;;;7.60;46.93
61474;BME280;53694;49.784;30.150;2023-05-07T02:24:10;100451.17;;;7.62;47.10
61474;BME280;53694;49.784;30.150;2023-05-07T02:25:12;100449.70;;;7.64;46.79
61474;BME280;53694;49.784;30.150;2023-05-07T02:26:14;100446.67;;;7.66;46.64
61474;BME280;53694;49.784;30.150;2023-05-07T02:27:15;100447.14;;;7.68;46.42
61474;BME280;53694;49.784;30.150;2023-05-07T02:28:17;100442.47;;;7.68;46.64
61474;BME280;53694;49.784;30.150;2023-05-07T02:29:18;100447.64;;;7.70;46.31
61474;BME280;53694;49.784;30.150;2023-05-07T02:30:20;100433.97;;;7.70;46.63
61474;BME280;53694;49.784;30.150;2023-05-07T02:31:21;100446.84;;;7.69;46.89
61474;BME280;53694;49.784;30.150;2023-05-07T02:32:23;100450.84;;;7.72;46.65
61474;BME280;53694;49.784;30.150;2023-05-07T02:33:25;100458.41;;;7.75;46.69
61474;BME280;53694;49.784;30.150;2023-05-07T02:34:26;100455.67;;;7.75;45.91
61474;BME280;53694;49.784;30.150;2023-05-07T02:35:28;100455.67;;;7.75;45.91
61474;BME280;53694;49.784;30.150;2023-05-07T02:36:30;100450.53;;;7.73;45.92
61474;BME280;53694;49.784;30.150;2023-05-07T02:37:31;100451.64;;;7.72;46.28
61474;BME280;53694;49.784;30.150;2023-05-07T02:38:33;100455.84;;;7.70;46.35
61474;BME280;53694;49.784;30.150;2023-05-07T02:39:35;100455.04;;;7.69;46.12
61474;BME280;53694;49.784;30.150;2023-05-07T02:40:37;100455.84;;;7.70;46.26
61474;BME280;53694;49.784;30.150;2023-05-07T02:41:38;100456.97;;;7.69;46.25
61474;BME280;53694;49.784;30.150;2023-05-07T02:42:40;100453.11;;;7.70;46.18
61474;BME280;53694;49.784;30.150;2023-05-07T02:43:41;100458.24;;;7.71;46.09
61474;BME280;53694;49.784;30.150;2023-05-07T02:44:43;100454.23;;;7.69;46.10
61474;BME280;53694;49.784;30.150;2023-05-07T02:45:44;100455.84;;;7.70;45.83
61474;BME280;53694;49.784;30.150;2023-05-07T02:46:46;100457.44;;;7.71;46.06
61474;BME280;53694;49.784;30.150;2023-05-07T02:47:47;100462.91;;;7.71;45.99
61474;BME280;53694;49.784;30.150;2023-05-07T02:48:49;100463.70;;;7.71;45.99
61474;BME280;53694;49.784;30.150;2023-05-07T02:49:51;100459.04;;;7.72;45.87
61474;BME280;53694;49.784;30.150;2023-05-07T02:50:52;100455.17;;;7.73;45.77
61474;BME280;53694;49.784;30.150;2023-05-07T02:51:54;100463.87;;;7.75;45.95
61474;BME280;53694;49.784;30.150;2023-05-07T02:52:55;100467.08;;;7.77;45.64
61474;BME280;53694;49.784;30.150;2023-05-07T02:53:57;100465.17;;;7.78;45.61
61474;BME280;53694;49.784;30.150;2023-05-07T02:54:58;100473.38;;;7.78;45.56
61474;BME280;53694;49.784;30.150;2023-05-07T02:56:01;100468.70;;;7.78;45.55
61474;BME280;53694;49.784;30.150;2023-05-07T02:57:02;100473.84;;;7.80;45.58
61474;BME280;53694;49.784;30.150;2023-05-07T02:58:04;100471.91;;;7.80;45.35
61474;BME280;53694;49.784;30.150;2023-05-07T02:59:06;100466.44;;;7.80;45.41
61474;BME280;53694;49.784;30.150;2023-05-07T03:00:15;100476.75;;;7.83;45.35
61474;BME280;53694;49.784;30.150;2023-05-07T03:01:17;100472.88;;;7.84;45.36
61474;BME280;53694;49.784;30.150;2023-05-07T03:02:18;100482.21;;;7.83;45.33
61474;BME280;53694;49.784;30.150;2023-05-07T03:03:20;100483.81;;;7.84;45.45
61474;BME280;53694;49.784;30.150;2023-05-07T03:04:22;100483.81;;;7.84;45.31
61474;BME280;53694;49.784;30.150;2023-05-07T03:05:23;100484.95;;;7.83;45.27
61474;BME280;53694;49.784;30.150;2023-05-07T03:06:25;100492.35;;;7.83;45.21
61474;BME280;53694;49.784;30.150;2023-05-07T03:07:26;100495.39;;;7.81;45.19
61474;BME280;53694;49.784;30.150;2023-05-07T03:08:28;100502.79;;;7.81;45.24
61474;BME280;53694;49.784;30.150;2023-05-07T03:09:29;100506.98;;;7.78;45.25
61474;BME280;53694;49.784;30.150;2023-05-07T03:10:31;100511.96;;;7.76;45.29
61474;BME280;53694;49.784;30.150;2023-05-07T03:11:33;100515.98;;;7.70;45.27
61474;BME280;53694;49.784;30.150;2023-05-07T03:12:35;100521.28;;;7.66;45.47
61474;BME280;53694;49.784;30.150;2023-05-07T03:13:36;100522.09;;;7.67;45.78
61474;BME280;53694;49.784;30.150;2023-05-07T03:14:38;100519.86;;;7.69;46.01
61474;BME280;53694;49.784;30.150;2023-05-07T03:15:39;100523.86;;;7.71;45.86
61474;BME280;53694;49.784;30.150;2023-05-07T03:16:41;100525.16;;;7.74;45.91
61474;BME280;53694;49.784;30.150;2023-05-07T03:17:42;100527.23;;;7.77;45.81
61474;BME280;53694;49.784;30.150;2023-05-07T03:18:44;100528.20;;;7.81;45.53
61474;BME280;53694;49.784;30.150;2023-05-07T03:19:46;100528.20;;;7.81;45.53
61474;BME280;53694;49.784;30.150;2023-05-07T03:20:48;100526.44;;;7.85;45.70
61474;BME280;53694;49.784;30.150;2023-05-07T03:21:49;100530.80;;;7.86;45.54
61474;BME280;53694;49.784;30.150;2023-05-07T03:22:51;100524.20;;;7.87;45.74
61474;BME280;53694;49.784;30.150;2023-05-07T03:23:53;100525.33;;;7.86;45.87
61474;BME280;53694;49.784;30.150;2023-05-07T03:24:54;100520.16;;;7.85;45.99
61474;BME280;53694;49.784;30.150;2023-05-07T03:25:56;100523.70;;;7.85;46.10
61474;BME280;53694;49.784;30.150;2023-05-07T03:26:58;100528.07;;;7.86;46.03
61474;BME280;53694;49.784;30.150;2023-05-07T03:27:59;100523.06;;;7.88;45.88
61474;BME280;53694;49.784;30.150;2023-05-07T03:29:01;100520.34;;;7.88;45.89
61474;BME280;53694;49.784;30.150;2023-05-07T03:30:03;100520.83;;;7.90;46.00
61474;BME280;53694;49.784;30.150;2023-05-07T03:31:05;100526.77;;;7.92;45.75
61474;BME280;53694;49.784;30.150;2023-05-07T03:32:07;100524.03;;;7.92;45.36
61474;BME280;53694;49.784;30.150;2023-05-07T03:33:08;100529.51;;;7.92;45.28
61474;BME280;53694;49.784;30.150;2023-05-07T03:34:10;100525.64;;;7.93;45.66
61474;BME280;53694;49.784;30.150;2023-05-07T03:35:12;100525.64;;;7.93;45.66
61474;BME280;53694;49.784;30.150;2023-05-07T03:36:13;100532.73;;;7.94;45.38
61474;BME280;53694;49.784;30.150;2023-05-07T03:37:15;100531.11;;;7.93;45.40
61474;BME280;53694;49.784;30.150;2023-05-07T03:38:16;100531.91;;;7.94;45.36
61474;BME280;53694;49.784;30.150;2023-05-07T03:39:18;100513.89;;;7.93;45.35
61474;BME280;53694;49.784;30.150;2023-05-07T03:40:20;100524.03;;;7.92;45.58
61474;BME280;53694;49.784;30.150;2023-05-07T03:41:21;100524.03;;;7.92;45.66
61474;BME280;53694;49.784;30.150;2023-05-07T03:42:23;100524.84;;;7.93;45.31
61474;BME280;53694;49.784;30.150;2023-05-07T03:43:25;100528.37;;;7.93;45.36
61474;BME280;53694;49.784;30.150;2023-05-07T03:44:26;100525.17;;;7.91;45.11
61474;BME280;53694;49.784;30.150;2023-05-07T03:45:28;100526.77;;;7.92;45.33
61474;BME280;53694;49.784;30.150;2023-05-07T03:46:30;100533.38;;;7.91;45.33
61474;BME280;53694;49.784;30.150;2023-05-07T03:47:32;100538.05;;;7.91;45.10
61474;BME280;53694;49.784;30.150;2023-05-07T03:48:33;100537.71;;;7.92;45.39
61474;BME280;53694;49.784;30.150;2023-05-07T03:49:35;100528.70;;;7.92;45.59
61474;BME280;53694;49.784;30.150;2023-05-07T03:50:37;100540.45;;;7.92;45.19
61474;BME280;53694;49.784;30.150;2023-05-07T03:51:38;100534.98;;;7.92;45.30
61474;BME280;53694;49.784;30.150;2023-05-07T03:52:40;100538.52;;;7.93;45.08
61474;BME280;53694;49.784;30.150;2023-05-07T03:53:42;100539.64;;;7.92;45.17
61474;BME280;53694;49.784;30.150;2023-05-07T03:54:43;100533.38;;;7.91;45.35
61474;BME280;53694;49.784;30.150;2023-05-07T03:55:45;100532.23;;;7.92;45.41
61474;BME280;53694;49.784;30.150;2023-05-07T03:56:46;100525.97;;;7.92;45.27
61474;BME280;53694;49.784;30.150;2023-05-07T03:57:48;100516.16;;;7.91;45.02
61474;BME280;53694;49.784;30.150;2023-05-07T03:58:50;100525.17;;;7.91;45.01
61474;BME280;53694;49.784;30.150;2023-05-07T03:59:51;100521.94;;;7.89;45.16
61474;BME280;53694;49.784;30.150;2023-05-07T04:00:53;100525.33;;;7.86;45.30
61474;BME280;53694;49.784;30.150;2023-05-07T04:01:54;100528.70;;;7.83;45.17
61474;BME280;53694;49.784;30.150;2023-05-07T04:02:56;100534.17;;;7.83;45.22
61474;BME280;53694;49.784;30.150;2023-05-07T04:03:58;100536.11;;;7.83;45.38
61474;BME280;53694;49.784;30.150;2023-05-07T04:04:59;100529.03;;;7.82;45.11
61474;BME280;53694;49.784;30.150;2023-05-07T04:06:00;100531.27;;;7.80;45.11
61474;BME280;53694;49.784;30.150;2023-05-07T04:07:02;100531.91;;;7.76;45.15
61474;BME280;53694;49.784;30.150;2023-05-07T04:08:04;100531.91;;;7.76;45.15
61474;BME280;53694;49.784;30.150;2023-05-07T04:09:05;100536.57;;;7.76;44.99
61474;BME280;53694;49.784;30.150;2023-05-07T04:10:08;100531.09;;;7.76;45.31
61474;BME280;53694;49.784;30.150;2023-05-07T04:11:10;100532.70;;;7.77;45.32
61474;BME280;53694;49.784;30.150;2023-05-07T04:12:11;100532.70;;;7.77;45.39
61474;BME280;53694;49.784;30.150;2023-05-07T04:13:13;100533.53;;;7.78;45.47
61474;BME280;53694;49.784;30.150;2023-05-07T04:14:14;100535.13;;;7.79;45.46
61474;BME280;53694;49.784;30.150;2023-05-07T04:15:16;100530.47;;;7.79;46.00
61474;BME280;53694;49.784;30.150;2023-05-07T04:16:17;100530.47;;;7.79;46.00
61474;BME280;53694;49.784;30.150;2023-05-07T04:17:19;100532.07;;;7.80;45.71
61474;BME280;53694;49.784;30.150;2023-05-07T04:18:21;100538.34;;;7.81;45.88
61474;BME280;53694;49.784;30.150;2023-05-07T04:19:22;100533.67;;;7.81;45.63
61474;BME280;53694;49.784;30.150;2023-05-07T04:20:24;100531.44;;;7.83;45.40
61474;BME280;53694;49.784;30.150;2023-05-07T04:21:26;100533.04;;;7.84;45.41
61474;BME280;53694;49.784;30.150;2023-05-07T04:22:27;100530.80;;;7.86;45.78
61474;BME280;53694;49.784;30.150;2023-05-07T04:23:29;100529.17;;;7.85;45.25
61474;BME280;53694;49.784;30.150;2023-05-07T04:24:33;100525.33;;;7.86;45.12
61474;BME280;53694;49.784;30.150;2023-05-07T04:25:35;100527.23;;;7.86;45.39
61474;BME280;53694;49.784;30.150;2023-05-07T04:26:37;100519.37;;;7.84;45.24
61474;BME280;53694;49.784;30.150;2023-05-07T04:27:38;100525.97;;;7.83;45.17
61474;BME280;53694;49.784;30.150;2023-05-07T04:28:40;100526.77;;;7.84;45.39
61474;BME280;53694;49.784;30.150;2023-05-07T04:29:42;100526.14;;;7.87;45.63
61474;BME280;53694;49.784;30.150;2023-05-07T04:30:43;100523.06;;;7.88;45.67
61474;BME280;53694;49.784;30.150;2023-05-07T04:31:45;100520.00;;;7.90;45.78
61474;BME280;53694;49.784;30.150;2023-05-07T04:32:47;100512.30;;;7.92;45.52
61474;BME280;53694;49.784;30.150;2023-05-07T04:33:48;100515.50;;;7.94;45.66
61474;BME280;53694;49.784;30.150;2023-05-07T04:34:50;100521.13;;;7.97;45.80
61474;BME280;53694;49.784;30.150;2023-05-07T04:35:51;100506.33;;;7.98;45.78
61474;BME280;53694;49.784;30.150;2023-05-07T04:36:53;100512.76;;;8.02;45.65
61474;BME280;53694;49.784;30.150;2023-05-07T04:37:55;100508.92;;;8.04;45.65
61474;BME280;53694;49.784;30.150;2023-05-07T04:38:56;100511.48;;;8.09;45.96
61474;BME280;53694;49.784;30.150;2023-05-07T04:39:58;100502.94;;;8.10;45.72
61474;BME280;53694;49.784;30.150;2023-05-07T04:41:03;100499.91;;;8.12;45.60
61474;BME280;53694;49.784;30.150;2023-05-07T04:42:05;100501.01;;;8.11;45.33
61474;BME280;53694;49.784;30.150;2023-05-07T04:43:07;100508.75;;;8.09;44.94
61474;BME280;53694;49.784;30.150;2023-05-07T04:44:08;100512.13;;;8.06;44.83
61474;BME280;53694;49.784;30.150;2023-05-07T04:45:10;100510.52;;;8.05;44.92
61474;BME280;53694;49.784;30.150;2023-05-07T04:46:12;100507.29;;;8.02;44.94
61474;BME280;53694;49.784;30.150;2023-05-07T04:47:13;100507.95;;;7.99;45.47
61474;BME280;53694;49.784;30.150;2023-05-07T04:48:15;100505.52;;;7.98;45.26
61474;BME280;53694;49.784;30.150;2023-05-07T04:49:16;100504.25;;;7.95;45.37
61474;BME280;53694;49.784;30.150;2023-05-07T04:50:18;100494.45;;;7.94;45.24
61474;BME280;53694;49.784;30.150;2023-05-07T04:51:20;100501.82;;;7.94;45.13
61474;BME280;53694;49.784;30.150;2023-05-07T04:52:21;100498.28;;;7.93;45.16
61474;BME280;53694;49.784;30.150;2023-05-07T04:53:23;100500.55;;;7.91;45.27
61474;BME280;53694;49.784;30.150;2023-05-07T04:54:25;100498.95;;;7.90;45.50
61474;BME280;53694;49.784;30.150;2023-05-07T04:55:26;100494.92;;;7.88;45.75
61474;BME280;53694;49.784;30.150;2023-05-07T04:56:28;100493.31;;;7.87;45.98
61474;BME280;53694;49.784;30.150;2023-05-07T04:57:30;100472.55;;;7.77;45.89
61474;BME280;53694;49.784;30.150;2023-05-07T04:58:32;100479.95;;;7.85;45.54
61474;BME280;53694;49.784;30.150;2023-05-07T04:59:33;100473.38;;;7.86;45.33
61474;BME280;53694;49.784;30.150;2023-05-07T05:00:35;100463.54;;;7.85;45.39
61474;BME280;53694;49.784;30.150;2023-05-07T05:01:37;100467.41;;;7.84;44.99
61474;BME280;53694;49.784;30.150;2023-05-07T05:02:39;100464.20;;;7.82;44.79
61474;BME280;53694;49.784;30.150;2023-05-07T05:03:40;100454.06;;;7.83;44.71
61474;BME280;53694;49.784;30.150;2023-05-07T05:04:42;100453.27;;;7.82;44.30
61474;BME280;53694;49.784;30.150;2023-05-07T05:05:44;100458.73;;;7.82;43.53
61474;BME280;53694;49.784;30.150;2023-05-07T05:06:45;100456.00;;;7.82;42.40
61474;BME280;53694;49.784;30.150;2023-05-07T05:07:47;100464.20;;;7.82;42.89
61474;BME280;53694;49.784;30.150;2023-05-07T05:08:49;100461.94;;;7.84;42.85
61474;BME280;53694;49.784;30.150;2023-05-07T05:09:50;100466.77;;;7.87;42.70
61474;BME280;53694;49.784;30.150;2023-05-07T05:10:52;100463.06;;;7.92;42.65
61474;BME280;53694;49.784;30.150;2023-05-07T05:11:54;100464.36;;;7.94;42.62
61474;BME280;53694;49.784;30.150;2023-05-07T05:12:56;100466.43;;;7.97;42.68
61474;BME280;53694;49.784;30.150;2023-05-07T05:13:59;100466.92;;;7.99;42.69
61474;BME280;53694;49.784;30.150;2023-05-07T05:15:00;100468.99;;;8.02;42.93
61474;BME280;53694;49.784;30.150;2023-05-07T05:16:02;100477.69;;;8.05;43.18
61474;BME280;53694;49.784;30.150;2023-05-07T05:17:04;100482.53;;;8.08;43.45
61474;BME280;53694;49.784;30.150;2023-05-07T05:18:05;100484.59;;;8.11;43.47
61474;BME280;53694;49.784;30.150;2023-05-07T05:19:07;100483.48;;;8.12;43.43
61474;BME280;53694;49.784;30.150;2023-05-07T05:20:09;100485.09;;;8.13;43.57
61474;BME280;53694;49.784;30.150;2023-05-07T05:21:11;100486.69;;;8.14;43.73
61474;BME280;53694;49.784;30.150;2023-05-07T05:22:13;100489.92;;;8.16;43.71
61474;BME280;53694;49.784;30.150;2023-05-07T05:23:14;100485.55;;;8.15;43.73